^^
Station Historical Data
Daily Summary for January 13, 2018 Units:  Both    English   Metric
« Previous Day
Next Day »
Daily Weekly Monthly Yearly Custom
  High: Low: Average:
Temperature: TemperatureF °F /  -17.8 °C 11.9 °F /  -11.2 °C 15.8 °F /  -9 °C
Dew Point: DewpointF °F /  -17.8 °C 0.7 °F /  -17.4 °C 3.3 °F /  -15.9 °C
Humidity: Humidity% 49% 57%
Wind Speed: WindSpeedMPHmph /  0km/h - 4.4mph /  7.1km/h
Wind Gust: WindSpeedGustMPHmph /  0km/h - -
Wind- - ESE
Pressure: PressureIn in /  0 hPa 30.60 in /  1036.1 hPa -
Precipitation: 0.00 in /  0 mm    
Historical Graphs
 
 
Tabular Data for January 13, 2018
Time Temperature Dew Point Pressure Wind Wind Speed Wind Gust Humidity Rainfall Rate (Hourly)
TemperatureF °F /  -17.8 °C DewpointF °F /  -17.8 °C PressureInin /  0hPa Calm     Humidity% HourlyPrecipInin /  0mm
00:05 13.7 °F /  -10.2 °C 2.4 °F /  -16.4 °C 30.60in /  1036.1hPa North 11.0mph /  17.7km/h 11.0mph /  17.7km/h 60% 0.00in /  0mm
00:12 13.7 °F /  -10.2 °C 2.7 °F /  -16.3 °C 30.60in /  1036.1hPa NNE 5.8mph /  9.3km/h 5.8mph /  9.3km/h 61% 0.00in /  0mm
00:21 13.7 °F /  -10.2 °C 3.1 °F /  -16.1 °C 30.60in /  1036.1hPa North 8.1mph /  13km/h 8.1mph /  13km/h 62% 0.00in /  0mm
00:35 13.8 °F /  -10.1 °C 3.5 °F /  -15.8 °C 30.60in /  1036.1hPa North 5.8mph /  9.3km/h 5.8mph /  9.3km/h 63% 0.00in /  0mm
00:46 13.7 °F /  -10.2 °C 3.8 °F /  -15.7 °C 30.61in /  1036.5hPa North 3.5mph /  5.6km/h 3.5mph /  5.6km/h 64% 0.00in /  0mm
00:52 13.7 °F /  -10.2 °C 3.1 °F /  -16.1 °C 30.60in /  1036.1hPa North 5.8mph /  9.3km/h 5.8mph /  9.3km/h 62% 0.00in /  0mm
01:01 13.5 °F /  -10.3 °C 2.5 °F /  -16.4 °C 30.61in /  1036.5hPa North 12.7mph /  20.4km/h 12.7mph /  20.4km/h 61% 0.00in /  0mm
01:09 13.5 °F /  -10.3 °C 2.5 °F /  -16.4 °C 30.61in /  1036.5hPa NE 6.0mph /  9.7km/h 6.0mph /  9.7km/h 61% 0.00in /  0mm
01:18 13.4 °F /  -10.3 °C 1.7 °F /  -16.8 °C 30.61in /  1036.5hPa North 9.2mph /  14.8km/h 9.2mph /  14.8km/h 59% 0.00in /  0mm
01:44 13.5 °F /  -10.3 °C 1.8 °F /  -16.8 °C 30.62in /  1036.8hPa NE 11.5mph /  18.5km/h 11.5mph /  18.5km/h 59% 0.00in /  0mm
01:49 13.5 °F /  -10.3 °C 2.2 °F /  -16.6 °C 30.63in /  1037.1hPa North 8.1mph /  13km/h 8.1mph /  13km/h 60% 0.00in /  0mm
01:57 13.5 °F /  -10.3 °C 2.5 °F /  -16.4 °C 30.63in /  1037.1hPa NNE 8.1mph /  13km/h 8.1mph /  13km/h 61% 0.00in /  0mm
02:06 13.5 °F /  -10.3 °C 2.5 °F /  -16.4 °C 30.64in /  1037.5hPa North 11.0mph /  17.7km/h 11.0mph /  17.7km/h 61% 0.00in /  0mm
02:11 13.4 °F /  -10.3 °C 2.1 °F /  -16.6 °C 30.64in /  1037.5hPa NNW 9.2mph /  14.8km/h 9.2mph /  14.8km/h 60% 0.00in /  0mm
02:16 13.3 °F /  -10.4 °C 2.0 °F /  -16.7 °C 30.64in /  1037.5hPa North 5.8mph /  9.3km/h 5.8mph /  9.3km/h 60% 0.00in /  0mm
02:46 13.2 °F /  -10.4 °C 2.9 °F /  -16.2 °C 30.65in /  1037.8hPa North 3.5mph /  5.6km/h 3.5mph /  5.6km/h 63% 0.00in /  0mm
02:51 13.2 °F /  -10.4 °C 2.9 °F /  -16.2 °C 30.65in /  1037.8hPa North 6.9mph /  11.1km/h 6.9mph /  11.1km/h 63% 0.00in /  0mm
02:56 13.0 °F /  -10.6 °C 2.1 °F /  -16.6 °C 30.65in /  1037.8hPa NNE 10.4mph /  16.7km/h 10.4mph /  16.7km/h 61% 0.00in /  0mm
03:04 12.8 °F /  -10.7 °C 1.9 °F /  -16.7 °C 30.66in /  1038.1hPa NNE 11.5mph /  18.5km/h 11.5mph /  18.5km/h 61% 0.00in /  0mm
03:17 12.7 °F /  -10.7 °C 1.1 °F /  -17.2 °C 30.66in /  1038.1hPa North 10.4mph /  16.7km/h 10.4mph /  16.7km/h 59% 0.00in /  0mm
03:23 12.7 °F /  -10.7 °C 1.4 °F /  -17 °C 30.66in /  1038.1hPa North 3.5mph /  5.6km/h 3.5mph /  5.6km/h 60% 0.00in /  0mm
03:28 12.7 °F /  -10.7 °C 1.1 °F /  -17.2 °C 30.66in /  1038.1hPa North 8.1mph /  13km/h 8.1mph /  13km/h 59% 0.00in /  0mm
03:34 12.6 °F /  -10.8 °C 1.0 °F /  -17.2 °C 30.66in /  1038.1hPa NNE 8.1mph /  13km/h 8.1mph /  13km/h 59% 0.00in /  0mm
03:46 12.5 °F /  -10.8 °C 1.2 °F /  -17.1 °C 30.65in /  1037.8hPa NNE 3.5mph /  5.6km/h 3.5mph /  5.6km/h 60% 0.00in /  0mm
03:55 12.5 °F /  -10.8 °C 1.2 °F /  -17.1 °C 30.66in /  1038.1hPa North 7.0mph /  11.3km/h 7.0mph /  11.3km/h 60% 0.00in /  0mm
04:06 12.5 °F /  -10.8 °C 1.2 °F /  -17.1 °C 30.66in /  1038.1hPa North 9.0mph /  14.5km/h 9.0mph /  14.5km/h 60% 0.00in /  0mm
04:24 12.4 °F /  -10.9 °C 1.1 °F /  -17.2 °C 30.67in /  1038.5hPa NNW 6.9mph /  11.1km/h 6.9mph /  11.1km/h 60% 0.00in /  0mm
04:33 12.4 °F /  -10.9 °C 1.1 °F /  -17.2 °C 30.67in /  1038.5hPa NNE 8.1mph /  13km/h 8.1mph /  13km/h 60% 0.00in /  0mm
04:40 12.2 °F /  -11 °C 0.9 °F /  -17.3 °C 30.67in /  1038.5hPa North 8.1mph /  13km/h 8.1mph /  13km/h 60% 0.00in /  0mm
05:06 12.3 °F /  -10.9 °C 1.4 °F /  -17 °C 30.67in /  1038.5hPa NNE 4.6mph /  7.4km/h 4.6mph /  7.4km/h 61% 0.00in /  0mm
05:13 12.2 °F /  -11 °C 0.9 °F /  -17.3 °C 30.67in /  1038.5hPa NNE 3.5mph /  5.6km/h 3.5mph /  5.6km/h 60% 0.00in /  0mm
05:20 12.2 °F /  -11 °C 1.3 °F /  -17.1 °C 30.67in /  1038.5hPa NNE 1.2mph /  1.9km/h 1.2mph /  1.9km/h 61% 0.00in /  0mm
05:31 12.3 °F /  -10.9 °C 1.7 °F /  -16.8 °C 30.67in /  1038.5hPa ENE 4.0mph /  6.4km/h 4.0mph /  6.4km/h 62% 0.00in /  0mm
05:40 12.3 °F /  -10.9 °C 1.4 °F /  -17 °C 30.67in /  1038.5hPa NNE 4.0mph /  6.4km/h 4.0mph /  6.4km/h 61% 0.00in /  0mm
05:57 12.4 °F /  -10.9 °C 1.8 °F /  -16.8 °C 30.68in /  1038.8hPa North 3.5mph /  5.6km/h 3.5mph /  5.6km/h 62% 0.00in /  0mm
06:03 12.4 °F /  -10.9 °C 1.8 °F /  -16.8 °C 30.68in /  1038.8hPa North 6.9mph /  11.1km/h 6.9mph /  11.1km/h 62% 0.00in /  0mm
06:11 12.4 °F /  -10.9 °C 2.2 °F /  -16.6 °C 30.68in /  1038.8hPa North 3.5mph /  5.6km/h 4.0mph /  6.4km/h 63% 0.00in /  0mm
06:18 12.2 °F /  -11 °C 0.9 °F /  -17.3 °C 30.68in /  1038.8hPa North 3.5mph /  5.6km/h 3.5mph /  5.6km/h 60% 0.00in /  0mm
06:24 12.1 °F /  -11.1 °C 1.2 °F /  -17.1 °C 30.68in /  1038.8hPa NNE 3.5mph /  5.6km/h 3.5mph /  5.6km/h 61% 0.00in /  0mm
06:31 12.1 °F /  -11.1 °C 0.9 °F /  -17.3 °C 30.69in /  1039.2hPa NNE 7.0mph /  11.3km/h 7.0mph /  11.3km/h 60% 0.00in /  0mm
06:37 12.2 °F /  -11 °C 1.3 °F /  -17.1 °C 30.69in /  1039.2hPa NNE 4.6mph /  7.4km/h 4.6mph /  7.4km/h 61% 0.00in /  0mm
06:52 12.1 °F /  -11.1 °C 0.9 °F /  -17.3 °C 30.70in /  1039.5hPa North 3.5mph /  5.6km/h 3.5mph /  5.6km/h 60% 0.00in /  0mm
07:04 12.2 °F /  -11 °C 1.3 °F /  -17.1 °C 30.70in /  1039.5hPa NNE 8.1mph /  13km/h 8.1mph /  13km/h 61% 0.00in /  0mm
07:13 12.2 °F /  -11 °C 2.3 °F /  -16.5 °C 30.70in /  1039.5hPa North 2.0mph /  3.2km/h 2.8mph /  4.5km/h 64% 0.00in /  0mm
07:19 12.2 °F /  -11 °C 2.3 °F /  -16.5 °C 30.70in /  1039.5hPa NNE 2.3mph /  3.7km/h 2.3mph /  3.7km/h 64% 0.00in /  0mm
07:28 12.2 °F /  -11 °C 2.3 °F /  -16.5 °C 30.70in /  1039.5hPa NNE 4.6mph /  7.4km/h 4.6mph /  7.4km/h 64% 0.00in /  0mm
07:33 12.0 °F /  -11.1 °C 1.8 °F /  -16.8 °C 30.70in /  1039.5hPa NNE 3.5mph /  5.6km/h 3.5mph /  5.6km/h 63% 0.00in /  0mm
07:47 11.9 °F /  -11.2 °C 1.0 °F /  -17.2 °C 30.70in /  1039.5hPa North 5.0mph /  8km/h 5.0mph /  8km/h 61% 0.00in /  0mm
07:59 11.9 °F /  -11.2 °C 0.7 °F /  -17.4 °C 30.71in /  1039.8hPa North 5.8mph /  9.3km/h 5.8mph /  9.3km/h 60% 0.00in /  0mm
08:13 12.1 °F /  -11.1 °C 1.9 °F /  -16.7 °C 30.72in /  1040.2hPa NNE 3.5mph /  5.6km/h 3.5mph /  5.6km/h 63% 0.00in /  0mm
08:27 12.0 °F /  -11.1 °C 1.8 °F /  -16.8 °C 30.71in /  1039.8hPa North 3.5mph /  5.6km/h 3.5mph /  5.6km/h 63% 0.00in /  0mm
08:40 11.9 °F /  -11.2 °C 1.0 °F /  -17.2 °C 30.72in /  1040.2hPa North 3.5mph /  5.6km/h 3.5mph /  5.6km/h 61% 0.00in /  0mm
08:55 12.3 °F /  -10.9 °C 1.0 °F /  -17.2 °C 30.73in /  1040.5hPa NNE 4.6mph /  7.4km/h 4.6mph /  7.4km/h 60% 0.00in /  0mm
09:04 12.5 °F /  -10.8 °C 0.9 °F /  -17.3 °C 30.73in /  1040.5hPa NNW 4.6mph /  7.4km/h 4.6mph /  7.4km/h 59% 0.00in /  0mm
09:12 12.7 °F /  -10.7 °C 1.1 °F /  -17.2 °C 30.73in /  1040.5hPa North 3.5mph /  5.6km/h 3.5mph /  5.6km/h 59% 0.00in /  0mm
09:17 12.8 °F /  -10.7 °C 1.9 °F /  -16.7 °C 30.73in /  1040.5hPa WNW 2.3mph /  3.7km/h 2.3mph /  3.7km/h 61% 0.00in /  0mm
09:26 12.8 °F /  -10.7 °C 1.5 °F /  -16.9 °C 30.74in /  1040.9hPa NNE 5.0mph /  8km/h 5.0mph /  8km/h 60% 0.00in /  0mm
09:34 12.9 °F /  -10.6 °C 2.0 °F /  -16.7 °C 30.74in /  1040.9hPa NNE 2.3mph /  3.7km/h 2.6mph /  4.2km/h 61% 0.00in /  0mm
09:39 13.0 °F /  -10.6 °C 1.7 °F /  -16.8 °C 30.74in /  1040.9hPa North 3.5mph /  5.6km/h 3.5mph /  5.6km/h 60% 0.00in /  0mm
09:45 13.1 °F /  -10.5 °C 1.8 °F /  -16.8 °C 30.74in /  1040.9hPa North 3.5mph /  5.6km/h 3.5mph /  5.6km/h 60% 0.00in /  0mm
09:53 13.2 °F /  -10.4 °C 1.9 °F /  -16.7 °C 30.74in /  1040.9hPa NW 3.5mph /  5.6km/h 3.5mph /  5.6km/h 60% 0.00in /  0mm
10:04 13.7 °F /  -10.2 °C 2.7 °F /  -16.3 °C 30.75in /  1041.2hPa NNW 3.5mph /  5.6km/h 3.5mph /  5.6km/h 61% 0.00in /  0mm
10:12 13.5 °F /  -10.3 °C 2.2 °F /  -16.6 °C 30.75in /  1041.2hPa North 4.6mph /  7.4km/h 4.6mph /  7.4km/h 60% 0.00in /  0mm
10:27 14.0 °F /  -10 °C 3.0 °F /  -16.1 °C 30.75in /  1041.2hPa NNW 2.0mph /  3.2km/h 2.0mph /  3.2km/h 61% 0.00in /  0mm
10:34 14.4 °F /  -9.8 °C 3.0 °F /  -16.1 °C 30.75in /  1041.2hPa North 3.5mph /  5.6km/h 3.5mph /  5.6km/h 60% 0.00in /  0mm
11:00 14.8 °F /  -9.6 °C 2.7 °F /  -16.3 °C 30.74in /  1040.9hPa North 2.3mph /  3.7km/h 2.3mph /  3.7km/h 58% 0.00in /  0mm
11:05 14.7 °F /  -9.6 °C 2.6 °F /  -16.3 °C 30.74in /  1040.9hPa North 2.3mph /  3.7km/h 2.3mph /  3.7km/h 58% 0.00in /  0mm
11:16 14.9 °F /  -9.5 °C 3.1 °F /  -16.1 °C 30.74in /  1040.9hPa NNW 3.5mph /  5.6km/h 3.5mph /  5.6km/h 59% 0.00in /  0mm
11:23 15.0 °F /  -9.4 °C 2.9 °F /  -16.2 °C 30.74in /  1040.9hPa NNW 3.5mph /  5.6km/h 3.5mph /  5.6km/h 58% 0.00in /  0mm
11:28 15.2 °F /  -9.3 °C 3.1 °F /  -16.1 °C 30.73in /  1040.5hPa NNW 3.5mph /  5.6km/h 3.5mph /  5.6km/h 58% 0.00in /  0mm
11:38 15.8 °F /  -9 °C 2.9 °F /  -16.2 °C 30.72in /  1040.2hPa NNE 8.1mph /  13km/h 8.1mph /  13km/h 56% 0.00in /  0mm
11:43 15.4 °F /  -9.2 °C 2.9 °F /  -16.2 °C 30.72in /  1040.2hPa North 2.3mph /  3.7km/h 2.3mph /  3.7km/h 57% 0.00in /  0mm
11:49 15.4 °F /  -9.2 °C 2.9 °F /  -16.2 °C 30.72in /  1040.2hPa NNE 2.3mph /  3.7km/h 2.3mph /  3.7km/h 57% 0.00in /  0mm
11:54 15.4 °F /  -9.2 °C 2.9 °F /  -16.2 °C 30.71in /  1039.8hPa NW 2.3mph /  3.7km/h 2.3mph /  3.7km/h 57% 0.00in /  0mm
12:01 15.6 °F /  -9.1 °C 2.3 °F /  -16.5 °C 30.71in /  1039.8hPa East 3.5mph /  5.6km/h 3.5mph /  5.6km/h 55% 0.00in /  0mm
12:16 16.7 °F /  -8.5 °C 4.1 °F /  -15.5 °C 30.70in /  1039.5hPa North 4.6mph /  7.4km/h 4.6mph /  7.4km/h 57% 0.00in /  0mm
12:27 16.2 °F /  -8.8 °C 2.8 °F /  -16.2 °C 30.70in /  1039.5hPa NNE 2.3mph /  3.7km/h 2.3mph /  3.7km/h 55% 0.00in /  0mm
12:39 16.4 °F /  -8.7 °C 3.4 °F /  -15.9 °C 30.69in /  1039.2hPa NNE 2.3mph /  3.7km/h 2.3mph /  3.7km/h 56% 0.00in /  0mm
12:44 16.9 °F /  -8.4 °C 3.5 °F /  -15.8 °C 30.69in /  1039.2hPa NNE 3.5mph /  5.6km/h 3.5mph /  5.6km/h 55% 0.00in /  0mm
12:53 17.2 °F /  -8.2 °C 3.8 °F /  -15.7 °C 30.69in /  1039.2hPa ENE 2.3mph /  3.7km/h 2.3mph /  3.7km/h 55% 0.00in /  0mm
12:58 17.4 °F /  -8.1 °C 3.2 °F /  -16 °C 30.68in /  1038.8hPa NE 2.3mph /  3.7km/h 2.3mph /  3.7km/h 53% 0.00in /  0mm
13:08 17.9 °F /  -7.8 °C 4.8 °F /  -15.1 °C 30.68in /  1038.8hPa NNE 6.9mph /  11.1km/h 6.9mph /  11.1km/h 56% 0.00in /  0mm
13:18 17.7 °F /  -7.9 °C 4.6 °F /  -15.2 °C 30.67in /  1038.5hPa NE 3.5mph /  5.6km/h 3.5mph /  5.6km/h 56% 0.00in /  0mm
13:25 18.1 °F /  -7.7 °C 4.6 °F /  -15.2 °C 30.67in /  1038.5hPa NE 1.2mph /  1.9km/h 1.6mph /  2.6km/h 55% 0.00in /  0mm
13:33 18.3 °F /  -7.6 °C 5.6 °F /  -14.7 °C 30.66in /  1038.1hPa NE 2.3mph /  3.7km/h 2.3mph /  3.7km/h 57% 0.00in /  0mm
14:07 18.9 °F /  -7.3 °C 5.4 °F /  -14.8 °C 30.65in /  1037.8hPa ENE 2.3mph /  3.7km/h 2.3mph /  3.7km/h 55% 0.00in /  0mm
14:13 18.9 °F /  -7.3 °C 5.0 °F /  -15 °C 30.65in /  1037.8hPa ENE 2.3mph /  3.7km/h 2.3mph /  3.7km/h 54% 0.00in /  0mm
14:19 19.3 °F /  -7.1 °C 5.7 °F /  -14.6 °C 30.65in /  1037.8hPa ENE 1.2mph /  1.9km/h 1.2mph /  1.9km/h 55% 0.00in /  0mm
14:24 19.1 °F /  -7.2 °C 4.8 °F /  -15.1 °C 30.65in /  1037.8hPa NNE 3.5mph /  5.6km/h 3.5mph /  5.6km/h 53% 0.00in /  0mm
14:30 18.9 °F /  -7.3 °C 5.4 °F /  -14.8 °C 30.65in /  1037.8hPa NE 2.3mph /  3.7km/h 2.3mph /  3.7km/h 55% 0.00in /  0mm
14:37 19.5 °F /  -6.9 °C 5.9 °F /  -14.5 °C 30.65in /  1037.8hPa ENE 3.5mph /  5.6km/h 3.5mph /  5.6km/h 55% 0.00in /  0mm
14:49 19.2 °F /  -7.1 °C 4.8 °F /  -15.1 °C 30.64in /  1037.5hPa NE 3.5mph /  5.6km/h 3.5mph /  5.6km/h 53% 0.00in /  0mm
14:55 19.3 °F /  -7.1 °C 6.1 °F /  -14.4 °C 30.64in /  1037.5hPa NE 1.2mph /  1.9km/h 1.2mph /  1.9km/h 56% 0.00in /  0mm
15:03 19.3 °F /  -7.1 °C 4.9 °F /  -15.1 °C 30.64in /  1037.5hPa NNE 3.5mph /  5.6km/h 3.5mph /  5.6km/h 53% 0.00in /  0mm
15:10 19.5 °F /  -6.9 °C 5.9 °F /  -14.5 °C 30.64in /  1037.5hPa North 1.2mph /  1.9km/h 1.2mph /  1.9km/h 55% 0.00in /  0mm
15:20 19.8 °F /  -6.8 °C 5.4 °F /  -14.8 °C 30.63in /  1037.1hPa NE 3.5mph /  5.6km/h 3.5mph /  5.6km/h 53% 0.00in /  0mm
15:29 19.8 °F /  -6.8 °C 5.0 °F /  -15 °C 30.63in /  1037.1hPa ENE 1.2mph /  1.9km/h 1.2mph /  1.9km/h 52% 0.00in /  0mm
15:37 19.9 °F /  -6.7 °C 5.5 °F /  -14.7 °C 30.63in /  1037.1hPa ENE 3.5mph /  5.6km/h 3.5mph /  5.6km/h 53% 0.00in /  0mm
15:56 20.0 °F /  -6.7 °C 4.7 °F /  -15.2 °C 30.64in /  1037.5hPa ENE 1.2mph /  1.9km/h 1.2mph /  1.9km/h 51% 0.00in /  0mm
16:07 19.8 °F /  -6.8 °C 5.0 °F /  -15 °C 30.63in /  1037.1hPa East 2.3mph /  3.7km/h 2.3mph /  3.7km/h 52% 0.00in /  0mm
16:16 19.8 °F /  -6.8 °C 4.6 °F /  -15.2 °C 30.63in /  1037.1hPa East 2.3mph /  3.7km/h 2.3mph /  3.7km/h 51% 0.00in /  0mm
16:26 19.8 °F /  -6.8 °C 4.6 °F /  -15.2 °C 30.63in /  1037.1hPa East 1.2mph /  1.9km/h 1.2mph /  1.9km/h 51% 0.00in /  0mm
16:34 19.7 °F /  -6.8 °C 4.5 °F /  -15.3 °C 30.63in /  1037.1hPa East 3.5mph /  5.6km/h 3.5mph /  5.6km/h 51% 0.00in /  0mm
16:44 19.6 °F /  -6.9 °C 3.5 °F /  -15.8 °C 30.63in /  1037.1hPa East 2.3mph /  3.7km/h 2.3mph /  3.7km/h 49% 0.00in /  0mm
16:49 19.6 °F /  -6.9 °C 3.9 °F /  -15.6 °C 30.63in /  1037.1hPa SE 3.5mph /  5.6km/h 3.5mph /  5.6km/h 50% 0.00in /  0mm
17:01 19.7 °F /  -6.8 °C 4.0 °F /  -15.6 °C 30.62in /  1036.8hPa SE 3.5mph /  5.6km/h 3.5mph /  5.6km/h 50% 0.00in /  0mm
17:13 19.7 °F /  -6.8 °C 4.5 °F /  -15.3 °C 30.62in /  1036.8hPa ESE 2.3mph /  3.7km/h 2.3mph /  3.7km/h 51% 0.00in /  0mm
17:22 19.7 °F /  -6.8 °C 4.9 °F /  -15.1 °C 30.62in /  1036.8hPa ESE 2.3mph /  3.7km/h 2.3mph /  3.7km/h 52% 0.00in /  0mm
17:27 19.8 °F /  -6.8 °C 4.6 °F /  -15.2 °C 30.62in /  1036.8hPa SE 4.6mph /  7.4km/h 4.6mph /  7.4km/h 51% 0.00in /  0mm
17:37 19.7 °F /  -6.8 °C 4.5 °F /  -15.3 °C 30.62in /  1036.8hPa East 4.0mph /  6.4km/h 4.0mph /  6.4km/h 51% 0.00in /  0mm
17:43 19.6 °F /  -6.9 °C 4.4 °F /  -15.3 °C 30.62in /  1036.8hPa East 2.3mph /  3.7km/h 2.3mph /  3.7km/h 51% 0.00in /  0mm
17:51 19.6 °F /  -6.9 °C 3.9 °F /  -15.6 °C 30.62in /  1036.8hPa East 3.5mph /  5.6km/h 3.5mph /  5.6km/h 50% 0.00in /  0mm
17:59 19.5 °F /  -6.9 °C 3.9 °F /  -15.6 °C 30.62in /  1036.8hPa ENE 2.3mph /  3.7km/h 2.3mph /  3.7km/h 50% 0.00in /  0mm
18:17 19.4 °F /  -7 °C 3.8 °F /  -15.7 °C 30.61in /  1036.5hPa ESE 3.5mph /  5.6km/h 3.5mph /  5.6km/h 50% 0.00in /  0mm
18:22 19.3 °F /  -7.1 °C 4.1 °F /  -15.5 °C 30.61in /  1036.5hPa ESE 3.5mph /  5.6km/h 3.5mph /  5.6km/h 51% 0.00in /  0mm
18:29 19.2 °F /  -7.1 °C 4.4 °F /  -15.3 °C 30.61in /  1036.5hPa ESE 3.5mph /  5.6km/h 3.5mph /  5.6km/h 52% 0.00in /  0mm
18:35 19.1 °F /  -7.2 °C 4.3 °F /  -15.4 °C 30.61in /  1036.5hPa ESE 2.3mph /  3.7km/h 2.3mph /  3.7km/h 52% 0.00in /  0mm
18:50 18.7 °F /  -7.4 °C 4.4 °F /  -15.3 °C 30.62in /  1036.8hPa East 3.5mph /  5.6km/h 3.5mph /  5.6km/h 53% 0.00in /  0mm
18:56 18.6 °F /  -7.4 °C 4.3 °F /  -15.4 °C 30.62in /  1036.8hPa SE 3.0mph /  4.8km/h 3.0mph /  4.8km/h 53% 0.00in /  0mm
19:05 18.5 °F /  -7.5 °C 4.2 °F /  -15.4 °C 30.62in /  1036.8hPa SE 3.5mph /  5.6km/h 3.5mph /  5.6km/h 53% 0.00in /  0mm
19:14 18.3 °F /  -7.6 °C 4.0 °F /  -15.6 °C 30.63in /  1037.1hPa SE 1.2mph /  1.9km/h 1.4mph /  2.3km/h 53% 0.00in /  0mm
19:34 18.5 °F /  -7.5 °C 4.2 °F /  -15.4 °C 30.63in /  1037.1hPa ESE 3.5mph /  5.6km/h 3.5mph /  5.6km/h 53% 0.00in /  0mm
19:39 18.6 °F /  -7.4 °C 4.3 °F /  -15.4 °C 30.63in /  1037.1hPa ESE 3.5mph /  5.6km/h 3.5mph /  5.6km/h 53% 0.00in /  0mm
19:46 18.5 °F /  -7.5 °C 5.0 °F /  -15 °C 30.62in /  1036.8hPa ESE 3.5mph /  5.6km/h 3.5mph /  5.6km/h 55% 0.00in /  0mm
19:51 18.5 °F /  -7.5 °C 4.6 °F /  -15.2 °C 30.62in /  1036.8hPa ESE 2.3mph /  3.7km/h 2.3mph /  3.7km/h 54% 0.00in /  0mm
20:02 18.5 °F /  -7.5 °C 4.6 °F /  -15.2 °C 30.62in /  1036.8hPa East 2.3mph /  3.7km/h 2.3mph /  3.7km/h 54% 0.00in /  0mm
20:13 18.5 °F /  -7.5 °C 4.6 °F /  -15.2 °C 30.63in /  1037.1hPa ESE 3.5mph /  5.6km/h 3.5mph /  5.6km/h 54% 0.00in /  0mm
20:19 18.5 °F /  -7.5 °C 4.6 °F /  -15.2 °C 30.63in /  1037.1hPa SE 2.3mph /  3.7km/h 2.3mph /  3.7km/h 54% 0.00in /  0mm
20:26 18.4 °F /  -7.6 °C 4.5 °F /  -15.3 °C 30.63in /  1037.1hPa SE 4.6mph /  7.4km/h 4.6mph /  7.4km/h 54% 0.00in /  0mm
20:36 18.3 °F /  -7.6 °C 4.4 °F /  -15.3 °C 30.63in /  1037.1hPa SE 3.5mph /  5.6km/h 3.5mph /  5.6km/h 54% 0.00in /  0mm
20:48 18.4 °F /  -7.6 °C 4.9 °F /  -15.1 °C 30.63in /  1037.1hPa SE 3.5mph /  5.6km/h 3.5mph /  5.6km/h 55% 0.00in /  0mm
20:55 18.4 °F /  -7.6 °C 4.5 °F /  -15.3 °C 30.63in /  1037.1hPa SE 3.5mph /  5.6km/h 3.5mph /  5.6km/h 54% 0.00in /  0mm
21:12 18.4 °F /  -7.6 °C 4.5 °F /  -15.3 °C 30.63in /  1037.1hPa ESE 4.6mph /  7.4km/h 4.6mph /  7.4km/h 54% 0.00in /  0mm
21:18 18.4 °F /  -7.6 °C 4.5 °F /  -15.3 °C 30.63in /  1037.1hPa ESE 3.5mph /  5.6km/h 3.5mph /  5.6km/h 54% 0.00in /  0mm
21:40 18.4 °F /  -7.6 °C 4.9 °F /  -15.1 °C 30.62in /  1036.8hPa SE 5.0mph /  8km/h 5.0mph /  8km/h 55% 0.00in /  0mm
21:57 18.4 °F /  -7.6 °C 4.9 °F /  -15.1 °C 30.61in /  1036.5hPa SSE 6.9mph /  11.1km/h 6.9mph /  11.1km/h 55% 0.00in /  0mm
22:06 18.4 °F /  -7.6 °C 5.3 °F /  -14.8 °C 30.61in /  1036.5hPa East 3.5mph /  5.6km/h 3.5mph /  5.6km/h 56% 0.00in /  0mm
22:13 18.4 °F /  -7.6 °C 5.3 °F /  -14.8 °C 30.61in /  1036.5hPa ESE 6.9mph /  11.1km/h 6.9mph /  11.1km/h 56% 0.00in /  0mm
22:22 18.4 °F /  -7.6 °C 5.7 °F /  -14.6 °C 30.61in /  1036.5hPa East 3.5mph /  5.6km/h 3.5mph /  5.6km/h 57% 0.00in /  0mm
22:27 18.4 °F /  -7.6 °C 5.7 °F /  -14.6 °C 30.61in /  1036.5hPa ESE 3.5mph /  5.6km/h 3.5mph /  5.6km/h 57% 0.00in /  0mm
22:41 18.3 °F /  -7.6 °C 5.6 °F /  -14.7 °C 30.61in /  1036.5hPa SE 4.6mph /  7.4km/h 4.6mph /  7.4km/h 57% 0.00in /  0mm
22:53 18.3 °F /  -7.6 °C 5.6 °F /  -14.7 °C 30.61in /  1036.5hPa ESE 8.1mph /  13km/h 8.1mph /  13km/h 57% 0.00in /  0mm
23:03 18.4 °F /  -7.6 °C 5.7 °F /  -14.6 °C 30.61in /  1036.5hPa SE 4.6mph /  7.4km/h 4.6mph /  7.4km/h 57% 0.00in /  0mm
23:20 18.6 °F /  -7.4 °C 5.9 °F /  -14.5 °C 30.60in /  1036.1hPa ENE 3.5mph /  5.6km/h 3.5mph /  5.6km/h 57% 0.00in /  0mm
23:25 18.6 °F /  -7.4 °C 5.5 °F /  -14.7 °C 30.60in /  1036.1hPa SE 9.2mph /  14.8km/h 9.2mph /  14.8km/h 56% 0.00in /  0mm
23:31 18.6 °F /  -7.4 °C 5.9 °F /  -14.5 °C 30.60in /  1036.1hPa SE 5.8mph /  9.3km/h 5.8mph /  9.3km/h 57% 0.00in /  0mm
23:36 18.6 °F /  -7.4 °C 5.9 °F /  -14.5 °C 30.60in /  1036.1hPa ESE 3.5mph /  5.6km/h 3.5mph /  5.6km/h 57% 0.00in /  0mm
23:43 18.5 °F /  -7.5 °C 5.8 °F /  -14.6 °C 30.60in /  1036.1hPa ESE 9.2mph /  14.8km/h 9.2mph /  14.8km/h 57% 0.00in /  0mm
23:52 18.5 °F /  -7.5 °C 5.8 °F /  -14.6 °C 30.60in /  1036.1hPa SE 4.6mph /  7.4km/h 4.6mph /  7.4km/h 57% 0.00in /  0mm
23:58 18.5 °F /  -7.5 °C 5.8 °F /  -14.6 °C 30.60in /  1036.1hPa SE 9.2mph /  14.8km/h 9.2mph /  14.8km/h 57% 0.00in /  0mm
Live Lenexa Weather
Compliments of Weather Underground - 1.5 mb